METAR stanice u blizini

 

LYBE - Beograd / Surčin, Srbija
Ažurirano: 26/01/2020 03:00
Mist, Delimično oblačno
Mist, Delimično oblačno
 Pravac vetra varies
Vetar: varies 4 km/h
Temperatura: 3°C
Tačka rose: 0°C
Vlažnost: 81%
Pritisak: 1022 hPa
Pregled: Mist
Oblaci: Partly Cloudy
Vidljivost: 4 km
2020/01/26 02:00 LYBE 260200Z VRB02KT 4000 BR NSC 03/00 Q1022 NOSIG
LYBT - Beograd / Batajnica, Srbija
Ažurirano: 26/01/2020 03:00
Mist, Delimično oblačno
Mist, Delimično oblačno
 Pravac vetra varies
Vetar: varies 2 km/h
Temperatura: 1°C
Tačka rose: 0°C
Vlažnost: 93%
Pritisak: 1022 hPa
Pregled: Mist
Oblaci: Partly Cloudy
Vidljivost: 5 km
2020/01/26 02:00 LYBT 260200Z VRB01KT 5000 BR NSC 01/M00 Q1022 NOSIG
LYVR - Vršac, Srbija
Ažurirano: 26/01/2020 03:00
Vedro
Vedro
 Pravac vetra varies
Vetar: varies 2 km/h
Temperatura: 0°C
Tačka rose: -2°C
Vlažnost: 87%
Pritisak: 1022 hPa
Pregled: Vedro
Vidljivost: greater than 10 km
2020/01/26 02:00 LYVR 260200Z AUTO VRB01KT CAVOK M00/M02 Q1022
 
LYKV - Lađevci, Srbija
Ažurirano: 26/01/2020 03:00
Mist, Delimično oblačno
Mist, Delimično oblačno
 Pravac vetra calm
Vetar: Tišina
Temperatura: -2°C
Tačka rose: -2°C
Vlažnost: 100%
Pritisak: 1024 hPa
Pregled: Mist
Oblaci: Partly Cloudy
Vidljivost: 3 km
2020/01/26 02:00 LYKV 260200Z 00000KT 3000 BR NSC M02/M02 Q1024 NOSIG
LYNI - Niš, Srbija
Ažurirano: 26/01/2020 03:00
Mist, Delimično oblačno
Mist, Delimično oblačno
 Pravac vetra I
Vetar: I 9 km/h
Temperatura: 3°C
Osećaj hladnoće: 0°C
Tačka rose: 0°C
Vlažnost: 81%
Pritisak: 1024 hPa
Pregled: Mist
Oblaci: Partly Cloudy
Vidljivost: 5 km
2020/01/26 02:00 LYNI 260200Z 10005KT 5000 BR NSC 03/M00 Q1024 NOSIG
BKPR - Priština, Srbija
Ažurirano: 26/01/2020 03:00
Mostly Cloudy
Mostly Cloudy
 Pravac vetra calm
Vetar: Tišina
Temperatura: 2°C
Tačka rose: 0°C
Vlažnost: 87%
Pritisak: 1024 hPa
Oblaci: Mostly Cloudy
Vidljivost: 10 km
Cloud details: Mostly Cloudy 2438 m
2020/01/26 02:00 BKPR 260200Z 00000KT 9999 BKN080 02/M00 Q1024 NOSIG RMK 17290095
 
LHPP - Pecs / Pogany, Hungary
Ažurirano: 25/01/2020 17:45
NOT Current
Mist, Delimično oblačno
Mist, Delimično oblačno
 Pravac vetra I
Vetar: I 6 km/h
Temperatura: 0°C
Tačka rose: -1°C
Vlažnost: 93%
Pritisak: 1023 hPa
Pregled: Mist
Oblaci: Partly Cloudy
Vidljivost: 4 km
2020/01/25 16:45 LHPP 251645Z 10003KT 4000 BR NSC 00/M01 Q1023
LHUD - Szeged, Hungary
Ažurirano: 04/07/2019 01:45
NOT Current
Vedro
Vedro
 Pravac vetra S
Vetar: S 7 km/h
Temperatura: 18°C
Tačka rose: 13°C
Vlažnost: 73%
Pritisak: 1019 hPa
Pregled: Vedro
Vidljivost: greater than 10 km
2019/07/03 23:45 LHUD 032345Z 35004KT CAVOK 18/13 Q1019
LRTR - Timisoara, Romania
Ažurirano: 26/01/2020 03:00
Vedro
Vedro
 Pravac vetra I
Vetar: I 9 km/h
Temperatura: 0°C
Osećaj hladnoće: -3°C
Tačka rose: -1°C
Vlažnost: 93%
Pritisak: 1023 hPa
Pregled: Vedro
Vidljivost: greater than 10 km
2020/01/26 02:00 LRTR 260200Z 08005KT CAVOK 00/M01 Q1023
 
LRCV - Craiova, Romania
Ažurirano: 26/01/2020 03:00
Vedro
Vedro
 Pravac vetra Z
Vetar: Z 6 km/h
Temperatura: 4°C
Tačka rose: -2°C
Vlažnost: 65%
Pritisak: 1021 hPa
Pregled: Vedro
Vidljivost: greater than 10 km
2020/01/26 02:00 LRCV 260200Z 28003KT CAVOK 04/M02 Q1021
LBSF - Sofia, Bulgaria
Ažurirano: 26/01/2020 03:00
Mist, Delimično oblačno
Mist, Delimično oblačno
 Pravac vetra JJZ
Vetar: JJZ 6 km/h
Temperatura: -4°C
Tačka rose: -5°C
Vlažnost: 93%
Pritisak: 1024 hPa
Pregled: Mist
Oblaci: Partly Cloudy
Vidljivost: 5 km
2020/01/26 02:00 LBSF 260200Z 21003KT 5000 BR NSC M04/M05 Q1024 TEMPO 3000 BR
LWSK - Skoplje, Makedonija
Ažurirano: 26/01/2020 02:30
Vedro
Vedro
 Pravac vetra S
Vetar: S 6 km/h
Temperatura: -4°C
Tačka rose: -5°C
Vlažnost: 93%
Pritisak: 1026 hPa
Pregled: Vedro
Vidljivost: greater than 10 km
2020/01/26 01:30 LWSK 260130Z 35003KT CAVOK M04/M05 Q1026 NOSIG
 
LYPG - Podgorica, Crna Gora
Ažurirano: 26/01/2020 03:00
Slaba kiša, Mist, Oblačno
Slaba kiša, Mist, Oblačno
 Pravac vetra SI
Vetar: SI 6 km/h
Temperatura: 6°C
Tačka rose: 6°C
Vlažnost: 100%
Pritisak: 1025 hPa
Pregled: Slaba kiša, Mist
Oblaci: Oblačno
Vidljivost: 2 km
Cloud details: Partly Cloudy 152 m
Mostly Cloudy 1036 m
Oblačno 2134 m
2020/01/26 02:00 LYPG 260200Z 05003KT 1600 -RA BR SCT005 BKN034 OVC070 06/06 Q1025 NOSIG
LQSA - Sarajevo, Bosna i Hercegovina
Ažurirano: 26/01/2020 03:00
Mist, Pretežno oblačno
Mist, Pretežno oblačno
 Pravac vetra varies
Vetar: varies 4 km/h
Temperatura: -3°C
Tačka rose: -3°C
Vlažnost: 100%
Pritisak: 1023 hPa
Pregled: Mist
Oblaci: Mostly Cloudy
Vidljivost: 1 km
Cloud details: Mostly Cloudy 91 m
2020/01/26 02:00 LQSA 260200Z VRB02KT 1200 R11/0800D BR BKN003 M03/M03 Q1023
LDOS - Osijek, Hrvatksa
Ažurirano: 26/01/2020 03:00
Mist, Delimično oblačno
Mist, Delimično oblačno
 Pravac vetra SI
Vetar: SI 7 km/h
Temperatura: -2°C
Osećaj hladnoće: -6°C
Tačka rose: -2°C
Vlažnost: 100%
Pritisak: 1023 hPa
Pregled: Mist
Oblaci: Partly Cloudy
Vidljivost: 3 km
2020/01/26 02:00 LDOS 260200Z 04004KT 2500 BR NSC M02/M02 Q1023